sensor_id;sensor_type;location;lat;lon;timestamp;temperature;humidity
53208;DHT22;39093;52.788;6.940;2023-04-06T00:00:55;4.60;95.10
53208;DHT22;39093;52.788;6.940;2023-04-06T00:03:22;4.60;95.10
53208;DHT22;39093;52.788;6.940;2023-04-06T00:05:49;4.50;95.60
53208;DHT22;39093;52.788;6.940;2023-04-06T00:08:16;4.50;96.40
53208;DHT22;39093;52.788;6.940;2023-04-06T00:10:43;4.50;96.10
53208;DHT22;39093;52.788;6.940;2023-04-06T00:13:10;4.50;96.30
53208;DHT22;39093;52.788;6.940;2023-04-06T00:15:37;4.40;96.70
53208;DHT22;39093;52.788;6.940;2023-04-06T00:18:04;4.40;96.30
53208;DHT22;39093;52.788;6.940;2023-04-06T00:20:31;4.30;97.00
53208;DHT22;39093;52.788;6.940;2023-04-06T00:22:58;4.30;96.60
53208;DHT22;39093;52.788;6.940;2023-04-06T00:25:25;4.30;96.70
53208;DHT22;39093;52.788;6.940;2023-04-06T00:27:52;4.20;97.30
53208;DHT22;39093;52.788;6.940;2023-04-06T00:30:19;4.20;97.60
53208;DHT22;39093;52.788;6.940;2023-04-06T00:32:46;4.10;97.50
53208;DHT22;39093;52.788;6.940;2023-04-06T00:35:13;4.10;97.60
53208;DHT22;39093;52.788;6.940;2023-04-06T00:37:41;4.00;97.70
53208;DHT22;39093;52.788;6.940;2023-04-06T00:40:09;4.00;97.80
53208;DHT22;39093;52.788;6.940;2023-04-06T00:42:36;4.00;98.70
53208;DHT22;39093;52.788;6.940;2023-04-06T00:45:03;3.90;98.70
53208;DHT22;39093;52.788;6.940;2023-04-06T00:47:30;3.90;98.70
53208;DHT22;39093;52.788;6.940;2023-04-06T00:49:57;3.90;99.00
53208;DHT22;39093;52.788;6.940;2023-04-06T00:52:24;3.90;99.50
53208;DHT22;39093;52.788;6.940;2023-04-06T00:54:51;3.80;99.40
53208;DHT22;39093;52.788;6.940;2023-04-06T00:57:18;3.80;99.70
53208;DHT22;39093;52.788;6.940;2023-04-06T00:59:45;3.80;99.90
53208;DHT22;39093;52.788;6.940;2023-04-06T01:02:12;3.70;99.70
53208;DHT22;39093;52.788;6.940;2023-04-06T01:04:39;3.70;99.90
53208;DHT22;39093;52.788;6.940;2023-04-06T01:07:06;3.70;99.90
53208;DHT22;39093;52.788;6.940;2023-04-06T01:09:33;3.60;99.90
53208;DHT22;39093;52.788;6.940;2023-04-06T01:12:00;3.60;99.90
53208;DHT22;39093;52.788;6.940;2023-04-06T01:14:27;3.60;99.90
53208;DHT22;39093;52.788;6.940;2023-04-06T01:16:57;3.60;99.90
53208;DHT22;39093;52.788;6.940;2023-04-06T01:19:24;3.60;99.90
53208;DHT22;39093;52.788;6.940;2023-04-06T01:21:51;3.50;99.90
53208;DHT22;39093;52.788;6.940;2023-04-06T01:24:20;3.50;99.90
53208;DHT22;39093;52.788;6.940;2023-04-06T01:26:47;3.50;99.90
53208;DHT22;39093;52.788;6.940;2023-04-06T01:29:14;3.50;99.90
53208;DHT22;39093;52.788;6.940;2023-04-06T01:31:42;3.40;99.90
53208;DHT22;39093;52.788;6.940;2023-04-06T01:34:09;3.40;99.90
53208;DHT22;39093;52.788;6.940;2023-04-06T01:36:36;3.50;99.90
53208;DHT22;39093;52.788;6.940;2023-04-06T01:39:02;3.40;99.90
53208;DHT22;39093;52.788;6.940;2023-04-06T01:41:29;3.30;99.90
53208;DHT22;39093;52.788;6.940;2023-04-06T01:43:56;3.30;99.90
53208;DHT22;39093;52.788;6.940;2023-04-06T01:46:23;3.30;99.90
53208;DHT22;39093;52.788;6.940;2023-04-06T01:48:50;3.20;99.90
53208;DHT22;39093;52.788;6.940;2023-04-06T01:51:17;3.30;99.90
53208;DHT22;39093;52.788;6.940;2023-04-06T01:53:44;3.20;99.90
53208;DHT22;39093;52.788;6.940;2023-04-06T01:56:11;3.20;99.90
53208;DHT22;39093;52.788;6.940;2023-04-06T01:58:38;3.10;99.90
53208;DHT22;39093;52.788;6.940;2023-04-06T02:01:05;3.10;99.90
53208;DHT22;39093;52.788;6.940;2023-04-06T02:03:32;3.20;99.90
53208;DHT22;39093;52.788;6.940;2023-04-06T02:05:59;3.10;99.90
53208;DHT22;39093;52.788;6.940;2023-04-06T02:08:26;3.00;99.90
53208;DHT22;39093;52.788;6.940;2023-04-06T02:10:52;3.00;99.90
53208;DHT22;39093;52.788;6.940;2023-04-06T02:13:19;3.00;99.90
53208;DHT22;39093;52.788;6.940;2023-04-06T02:15:46;2.90;99.90
53208;DHT22;39093;52.788;6.940;2023-04-06T02:18:13;2.90;99.90
53208;DHT22;39093;52.788;6.940;2023-04-06T02:20:40;2.90;99.90
53208;DHT22;39093;52.788;6.940;2023-04-06T02:23:07;2.90;99.90
53208;DHT22;39093;52.788;6.940;2023-04-06T02:25:34;2.90;99.90
53208;DHT22;39093;52.788;6.940;2023-04-06T02:28:01;2.80;99.90
53208;DHT22;39093;52.788;6.940;2023-04-06T02:30:28;2.80;99.90
53208;DHT22;39093;52.788;6.940;2023-04-06T02:32:55;2.80;99.90
53208;DHT22;39093;52.788;6.940;2023-04-06T02:35:24;2.70;99.90
53208;DHT22;39093;52.788;6.940;2023-04-06T02:37:51;2.70;99.90
53208;DHT22;39093;52.788;6.940;2023-04-06T02:40:18;2.70;99.90
53208;DHT22;39093;52.788;6.940;2023-04-06T02:42:45;2.60;99.90
53208;DHT22;39093;52.788;6.940;2023-04-06T02:45:12;2.70;99.90
53208;DHT22;39093;52.788;6.940;2023-04-06T02:47:38;2.60;99.90
53208;DHT22;39093;52.788;6.940;2023-04-06T02:50:06;2.60;99.90
53208;DHT22;39093;52.788;6.940;2023-04-06T02:52:33;2.60;99.90
53208;DHT22;39093;52.788;6.940;2023-04-06T02:54:59;2.60;99.90
53208;DHT22;39093;52.788;6.940;2023-04-06T02:57:26;2.50;99.90
53208;DHT22;39093;52.788;6.940;2023-04-06T02:59:53;2.50;99.90
53208;DHT22;39093;52.788;6.940;2023-04-06T03:02:20;2.50;99.90
53208;DHT22;39093;52.788;6.940;2023-04-06T03:04:47;2.50;99.90
53208;DHT22;39093;52.788;6.940;2023-04-06T03:07:14;2.50;99.90
53208;DHT22;39093;52.788;6.940;2023-04-06T03:09:41;2.50;99.90
53208;DHT22;39093;52.788;6.940;2023-04-06T03:12:08;2.50;99.90
53208;DHT22;39093;52.788;6.940;2023-04-06T03:14:36;2.40;99.90
53208;DHT22;39093;52.788;6.940;2023-04-06T03:17:02;2.40;99.90
53208;DHT22;39093;52.788;6.940;2023-04-06T03:19:29;2.40;99.90
53208;DHT22;39093;52.788;6.940;2023-04-06T03:21:56;2.40;99.90
53208;DHT22;39093;52.788;6.940;2023-04-06T03:24:23;2.30;99.90
53208;DHT22;39093;52.788;6.940;2023-04-06T03:26:50;2.30;99.90
53208;DHT22;39093;52.788;6.940;2023-04-06T03:29:17;2.40;99.90
53208;DHT22;39093;52.788;6.940;2023-04-06T03:31:44;2.30;99.90
53208;DHT22;39093;52.788;6.940;2023-04-06T03:34:11;2.30;99.90
53208;DHT22;39093;52.788;6.940;2023-04-06T03:36:38;2.20;99.90
53208;DHT22;39093;52.788;6.940;2023-04-06T03:39:05;2.20;99.90
53208;DHT22;39093;52.788;6.940;2023-04-06T03:41:32;2.20;99.90
53208;DHT22;39093;52.788;6.940;2023-04-06T03:43:59;2.10;99.90
53208;DHT22;39093;52.788;6.940;2023-04-06T03:46:26;2.30;99.90
53208;DHT22;39093;52.788;6.940;2023-04-06T03:48:53;2.10;99.90
53208;DHT22;39093;52.788;6.940;2023-04-06T03:51:20;2.10;99.90
53208;DHT22;39093;52.788;6.940;2023-04-06T03:53:47;2.10;99.90
53208;DHT22;39093;52.788;6.940;2023-04-06T03:56:14;2.10;99.90
53208;DHT22;39093;52.788;6.940;2023-04-06T03:58:41;2.00;99.90
53208;DHT22;39093;52.788;6.940;2023-04-06T04:01:08;2.10;99.90
53208;DHT22;39093;52.788;6.940;2023-04-06T04:03:34;2.00;99.90
53208;DHT22;39093;52.788;6.940;2023-04-06T04:06:02;2.20;99.90
53208;DHT22;39093;52.788;6.940;2023-04-06T04:08:29;2.00;99.90
53208;DHT22;39093;52.788;6.940;2023-04-06T04:10:55;2.00;99.90
53208;DHT22;39093;52.788;6.940;2023-04-06T04:13:22;2.00;99.90
53208;DHT22;39093;52.788;6.940;2023-04-06T04:15:49;2.00;99.90
53208;DHT22;39093;52.788;6.940;2023-04-06T04:18:16;2.00;99.90
53208;DHT22;39093;52.788;6.940;2023-04-06T04:20:43;1.90;99.90
53208;DHT22;39093;52.788;6.940;2023-04-06T04:23:10;1.90;99.90
53208;DHT22;39093;52.788;6.940;2023-04-06T04:25:37;1.90;99.90
53208;DHT22;39093;52.788;6.940;2023-04-06T04:28:04;1.80;99.90
53208;DHT22;39093;52.788;6.940;2023-04-06T04:30:31;1.80;99.90
53208;DHT22;39093;52.788;6.940;2023-04-06T04:32:58;1.90;99.90
53208;DHT22;39093;52.788;6.940;2023-04-06T04:35:26;1.80;99.90
53208;DHT22;39093;52.788;6.940;2023-04-06T04:37:53;1.80;99.90
53208;DHT22;39093;52.788;6.940;2023-04-06T04:40:20;1.80;99.90
53208;DHT22;39093;52.788;6.940;2023-04-06T04:42:49;1.80;99.90
53208;DHT22;39093;52.788;6.940;2023-04-06T04:45:17;1.70;99.90
53208;DHT22;39093;52.788;6.940;2023-04-06T04:47:44;1.80;99.90
53208;DHT22;39093;52.788;6.940;2023-04-06T04:50:11;1.70;99.90
53208;DHT22;39093;52.788;6.940;2023-04-06T04:52:38;1.60;99.90
53208;DHT22;39093;52.788;6.940;2023-04-06T04:55:05;1.60;99.90
53208;DHT22;39093;52.788;6.940;2023-04-06T04:57:32;1.60;99.90
53208;DHT22;39093;52.788;6.940;2023-04-06T04:59:59;1.60;99.90
53208;DHT22;39093;52.788;6.940;2023-04-06T05:02:26;1.60;99.90
53208;DHT22;39093;52.788;6.940;2023-04-06T05:04:53;1.60;99.90
53208;DHT22;39093;52.788;6.940;2023-04-06T05:07:20;1.60;99.90
53208;DHT22;39093;52.788;6.940;2023-04-06T05:09:47;1.60;99.90
53208;DHT22;39093;52.788;6.940;2023-04-06T05:12:14;1.50;99.90
53208;DHT22;39093;52.788;6.940;2023-04-06T05:14:41;1.70;99.90
53208;DHT22;39093;52.788;6.940;2023-04-06T05:17:08;1.60;99.90
53208;DHT22;39093;52.788;6.940;2023-04-06T05:19:36;1.60;99.90
53208;DHT22;39093;52.788;6.940;2023-04-06T05:22:02;1.70;99.90
53208;DHT22;39093;52.788;6.940;2023-04-06T05:24:29;1.60;99.90
53208;DHT22;39093;52.788;6.940;2023-04-06T05:26:56;1.60;99.90
53208;DHT22;39093;52.788;6.940;2023-04-06T05:29:23;1.60;99.90
53208;DHT22;39093;52.788;6.940;2023-04-06T05:31:51;1.70;99.90
53208;DHT22;39093;52.788;6.940;2023-04-06T05:34:18;1.70;99.90
53208;DHT22;39093;52.788;6.940;2023-04-06T05:36:45;1.70;99.90
53208;DHT22;39093;52.788;6.940;2023-04-06T05:39:12;1.80;99.90
53208;DHT22;39093;52.788;6.940;2023-04-06T05:41:39;1.90;99.90
53208;DHT22;39093;52.788;6.940;2023-04-06T05:44:06;2.20;99.90
53208;DHT22;39093;52.788;6.940;2023-04-06T05:46:33;2.20;99.90
53208;DHT22;39093;52.788;6.940;2023-04-06T05:49:00;2.30;99.90
53208;DHT22;39093;52.788;6.940;2023-04-06T05:51:27;2.50;99.90
53208;DHT22;39093;52.788;6.940;2023-04-06T05:53:54;2.60;99.90
53208;DHT22;39093;52.788;6.940;2023-04-06T05:56:21;3.00;99.90
53208;DHT22;39093;52.788;6.940;2023-04-06T05:58:48;2.80;99.90
53208;DHT22;39093;52.788;6.940;2023-04-06T06:01:15;3.00;99.90
53208;DHT22;39093;52.788;6.940;2023-04-06T06:03:44;3.10;99.90
53208;DHT22;39093;52.788;6.940;2023-04-06T06:06:11;3.20;99.90
53208;DHT22;39093;52.788;6.940;2023-04-06T06:08:38;3.20;99.90
53208;DHT22;39093;52.788;6.940;2023-04-06T06:11:07;3.20;99.90
53208;DHT22;39093;52.788;6.940;2023-04-06T06:13:34;3.20;99.90
53208;DHT22;39093;52.788;6.940;2023-04-06T06:16:01;3.20;99.90
53208;DHT22;39093;52.788;6.940;2023-04-06T06:18:31;3.10;99.90
53208;DHT22;39093;52.788;6.940;2023-04-06T06:20:58;3.00;99.90
53208;DHT22;39093;52.788;6.940;2023-04-06T06:23:26;3.00;99.90
53208;DHT22;39093;52.788;6.940;2023-04-06T06:25:53;3.00;99.90
53208;DHT22;39093;52.788;6.940;2023-04-06T06:28:20;2.90;99.90
53208;DHT22;39093;52.788;6.940;2023-04-06T06:30:47;3.00;99.90
53208;DHT22;39093;52.788;6.940;2023-04-06T06:33:14;2.90;99.90
53208;DHT22;39093;52.788;6.940;2023-04-06T06:35:41;3.00;99.90
53208;DHT22;39093;52.788;6.940;2023-04-06T06:38:08;3.00;99.90
53208;DHT22;39093;52.788;6.940;2023-04-06T06:40:35;3.00;99.90
53208;DHT22;39093;52.788;6.940;2023-04-06T06:43:02;3.00;99.90
53208;DHT22;39093;52.788;6.940;2023-04-06T06:45:29;3.10;99.90
53208;DHT22;39093;52.788;6.940;2023-04-06T06:47:56;3.10;99.90
53208;DHT22;39093;52.788;6.940;2023-04-06T06:50:23;3.20;99.90
53208;DHT22;39093;52.788;6.940;2023-04-06T06:52:50;3.20;99.90
53208;DHT22;39093;52.788;6.940;2023-04-06T06:55:17;3.30;99.90
53208;DHT22;39093;52.788;6.940;2023-04-06T06:57:45;3.30;99.90
53208;DHT22;39093;52.788;6.940;2023-04-06T07:00:15;3.40;99.90
53208;DHT22;39093;52.788;6.940;2023-04-06T07:02:42;3.40;99.90
53208;DHT22;39093;52.788;6.940;2023-04-06T07:05:09;3.50;99.90
53208;DHT22;39093;52.788;6.940;2023-04-06T07:07:54;3.50;99.90
53208;DHT22;39093;52.788;6.940;2023-04-06T07:10:21;3.60;99.90
53208;DHT22;39093;52.788;6.940;2023-04-06T07:12:48;3.70;99.90
53208;DHT22;39093;52.788;6.940;2023-04-06T07:15:16;3.70;99.90
53208;DHT22;39093;52.788;6.940;2023-04-06T07:17:43;3.70;99.90
53208;DHT22;39093;52.788;6.940;2023-04-06T07:20:13;3.80;99.90
53208;DHT22;39093;52.788;6.940;2023-04-06T07:22:44;3.90;99.90
53208;DHT22;39093;52.788;6.940;2023-04-06T07:25:14;4.00;99.90
53208;DHT22;39093;52.788;6.940;2023-04-06T07:27:41;4.10;99.90
53208;DHT22;39093;52.788;6.940;2023-04-06T07:30:09;4.10;99.90
53208;DHT22;39093;52.788;6.940;2023-04-06T07:32:36;4.20;99.90
53208;DHT22;39093;52.788;6.940;2023-04-06T07:35:03;4.30;99.90
53208;DHT22;39093;52.788;6.940;2023-04-06T07:37:30;4.40;99.90
53208;DHT22;39093;52.788;6.940;2023-04-06T07:39:57;4.50;99.90
53208;DHT22;39093;52.788;6.940;2023-04-06T07:42:24;4.50;99.90
53208;DHT22;39093;52.788;6.940;2023-04-06T07:44:51;4.60;99.90
53208;DHT22;39093;52.788;6.940;2023-04-06T07:47:18;4.80;99.90
53208;DHT22;39093;52.788;6.940;2023-04-06T07:49:45;4.80;99.90
53208;DHT22;39093;52.788;6.940;2023-04-06T07:52:12;4.90;99.90
53208;DHT22;39093;52.788;6.940;2023-04-06T07:54:40;4.90;99.90
53208;DHT22;39093;52.788;6.940;2023-04-06T07:57:07;5.00;99.90
53208;DHT22;39093;52.788;6.940;2023-04-06T07:59:33;5.10;99.90
53208;DHT22;39093;52.788;6.940;2023-04-06T08:02:00;5.20;99.90
53208;DHT22;39093;52.788;6.940;2023-04-06T08:04:27;5.30;99.90
53208;DHT22;39093;52.788;6.940;2023-04-06T08:06:54;5.40;99.90
53208;DHT22;39093;52.788;6.940;2023-04-06T08:09:21;5.50;99.90
53208;DHT22;39093;52.788;6.940;2023-04-06T08:11:48;5.50;99.90
53208;DHT22;39093;52.788;6.940;2023-04-06T08:14:15;5.70;99.90
53208;DHT22;39093;52.788;6.940;2023-04-06T08:16:42;5.80;99.90
53208;DHT22;39093;52.788;6.940;2023-04-06T08:19:09;5.80;99.90
53208;DHT22;39093;52.788;6.940;2023-04-06T08:21:37;5.90;99.90
53208;DHT22;39093;52.788;6.940;2023-04-06T08:24:04;6.10;99.90
53208;DHT22;39093;52.788;6.940;2023-04-06T08:26:33;6.20;99.90
53208;DHT22;39093;52.788;6.940;2023-04-06T08:29:00;6.30;99.90
53208;DHT22;39093;52.788;6.940;2023-04-06T08:31:27;6.40;99.80
53208;DHT22;39093;52.788;6.940;2023-04-06T08:33:54;6.50;99.00
53208;DHT22;39093;52.788;6.940;2023-04-06T08:36:21;6.60;99.20
53208;DHT22;39093;52.788;6.940;2023-04-06T08:38:49;6.70;98.80
53208;DHT22;39093;52.788;6.940;2023-04-06T08:41:18;6.80;98.10
53208;DHT22;39093;52.788;6.940;2023-04-06T08:43:57;6.90;98.30
53208;DHT22;39093;52.788;6.940;2023-04-06T08:46:24;7.10;97.50
53208;DHT22;39093;52.788;6.940;2023-04-06T08:48:58;7.30;97.20
53208;DHT22;39093;52.788;6.940;2023-04-06T08:51:26;7.40;96.80
53208;DHT22;39093;52.788;6.940;2023-04-06T08:53:54;7.60;96.10
53208;DHT22;39093;52.788;6.940;2023-04-06T08:56:23;7.70;96.00
53208;DHT22;39093;52.788;6.940;2023-04-06T08:58:52;7.90;95.30
53208;DHT22;39093;52.788;6.940;2023-04-06T09:01:23;7.90;95.70
53208;DHT22;39093;52.788;6.940;2023-04-06T09:03:57;8.00;96.00
53208;DHT22;39093;52.788;6.940;2023-04-06T09:06:25;8.20;95.70
53208;DHT22;39093;52.788;6.940;2023-04-06T09:08:55;8.30;95.90
53208;DHT22;39093;52.788;6.940;2023-04-06T09:11:23;8.40;95.30
53208;DHT22;39093;52.788;6.940;2023-04-06T09:13:54;8.50;95.40
53208;DHT22;39093;52.788;6.940;2023-04-06T09:16:21;8.60;94.80
53208;DHT22;39093;52.788;6.940;2023-04-06T09:18:49;8.80;94.50
53208;DHT22;39093;52.788;6.940;2023-04-06T09:21:18;8.90;93.80
53208;DHT22;39093;52.788;6.940;2023-04-06T09:23:59;9.10;93.70
53208;DHT22;39093;52.788;6.940;2023-04-06T09:26:26;9.40;92.30
53208;DHT22;39093;52.788;6.940;2023-04-06T09:28:55;9.50;92.20
53208;DHT22;39093;52.788;6.940;2023-04-06T09:33:53;9.90;89.10
53208;DHT22;39093;52.788;6.940;2023-04-06T09:36:31;10.20;90.40
53208;DHT22;39093;52.788;6.940;2023-04-06T09:39:03;10.40;89.10
53208;DHT22;39093;52.788;6.940;2023-04-06T09:41:32;10.70;88.70
53208;DHT22;39093;52.788;6.940;2023-04-06T09:44:11;10.90;88.80
53208;DHT22;39093;52.788;6.940;2023-04-06T09:46:40;11.20;86.30
53208;DHT22;39093;52.788;6.940;2023-04-06T09:49:24;11.40;82.20
53208;DHT22;39093;52.788;6.940;2023-04-06T09:51:57;11.50;81.20
53208;DHT22;39093;52.788;6.940;2023-04-06T09:54:29;11.50;78.60
53208;DHT22;39093;52.788;6.940;2023-04-06T09:57:11;11.60;78.70
53208;DHT22;39093;52.788;6.940;2023-04-06T10:07:33;11.90;76.20
53208;DHT22;39093;52.788;6.940;2023-04-06T10:10:10;11.90;75.50
53208;DHT22;39093;52.788;6.940;2023-04-06T10:12:39;11.90;75.30
53208;DHT22;39093;52.788;6.940;2023-04-06T10:15:07;11.90;73.60
53208;DHT22;39093;52.788;6.940;2023-04-06T10:17:35;11.90;73.80
53208;DHT22;39093;52.788;6.940;2023-04-06T10:20:14;11.90;74.40
53208;DHT22;39093;52.788;6.940;2023-04-06T10:22:55;12.00;74.50
53208;DHT22;39093;52.788;6.940;2023-04-06T10:25:32;12.00;74.40
53208;DHT22;39093;52.788;6.940;2023-04-06T10:28:00;11.90;73.90
53208;DHT22;39093;52.788;6.940;2023-04-06T10:30:28;12.00;75.40
53208;DHT22;39093;52.788;6.940;2023-04-06T10:32:55;12.10;75.00
53208;DHT22;39093;52.788;6.940;2023-04-06T10:35:22;12.20;74.50
53208;DHT22;39093;52.788;6.940;2023-04-06T10:38:01;12.40;74.00
53208;DHT22;39093;52.788;6.940;2023-04-06T10:40:28;12.60;73.50
53208;DHT22;39093;52.788;6.940;2023-04-06T10:43:06;12.90;70.20
53208;DHT22;39093;52.788;6.940;2023-04-06T10:45:33;13.10;71.20
53208;DHT22;39093;52.788;6.940;2023-04-06T10:48:04;13.40;71.00
53208;DHT22;39093;52.788;6.940;2023-04-06T10:50:39;13.50;69.60
53208;DHT22;39093;52.788;6.940;2023-04-06T10:53:06;13.60;69.70
53208;DHT22;39093;52.788;6.940;2023-04-06T10:55:34;13.70;69.60
53208;DHT22;39093;52.788;6.940;2023-04-06T10:58:01;13.60;68.80
53208;DHT22;39093;52.788;6.940;2023-04-06T11:00:28;13.40;67.40
53208;DHT22;39093;52.788;6.940;2023-04-06T11:03:15;13.40;67.50
53208;DHT22;39093;52.788;6.940;2023-04-06T11:05:46;13.50;68.60
53208;DHT22;39093;52.788;6.940;2023-04-06T11:08:33;13.70;67.30
53208;DHT22;39093;52.788;6.940;2023-04-06T11:11:14;13.90;66.80
53208;DHT22;39093;52.788;6.940;2023-04-06T11:13:51;14.30;66.30
53208;DHT22;39093;52.788;6.940;2023-04-06T11:16:23;14.70;66.90
53208;DHT22;39093;52.788;6.940;2023-04-06T11:18:55;15.00;65.10
53208;DHT22;39093;52.788;6.940;2023-04-06T11:24:17;14.90;64.10
53208;DHT22;39093;52.788;6.940;2023-04-06T11:26:48;14.80;65.90
53208;DHT22;39093;52.788;6.940;2023-04-06T11:31:53;14.60;63.70
53208;DHT22;39093;52.788;6.940;2023-04-06T11:34:22;14.80;64.20
53208;DHT22;39093;52.788;6.940;2023-04-06T11:36:57;14.80;64.40
53208;DHT22;39093;52.788;6.940;2023-04-06T11:39:26;14.80;63.20
53208;DHT22;39093;52.788;6.940;2023-04-06T11:41:55;14.70;62.00
53208;DHT22;39093;52.788;6.940;2023-04-06T11:44:49;14.70;62.10
53208;DHT22;39093;52.788;6.940;2023-04-06T11:47:16;14.70;62.40
53208;DHT22;39093;52.788;6.940;2023-04-06T11:49:44;14.60;62.80
53208;DHT22;39093;52.788;6.940;2023-04-06T11:52:19;14.70;62.00
53208;DHT22;39093;52.788;6.940;2023-04-06T11:54:48;14.70;62.10
53208;DHT22;39093;52.788;6.940;2023-04-06T11:57:18;14.90;62.50
53208;DHT22;39093;52.788;6.940;2023-04-06T11:59:45;15.10;63.70
53208;DHT22;39093;52.788;6.940;2023-04-06T12:02:12;15.30;63.60
53208;DHT22;39093;52.788;6.940;2023-04-06T12:04:39;15.60;61.80
53208;DHT22;39093;52.788;6.940;2023-04-06T12:07:06;15.60;63.30
53208;DHT22;39093;52.788;6.940;2023-04-06T12:09:33;15.60;61.30
53208;DHT22;39093;52.788;6.940;2023-04-06T12:12:01;15.40;61.60
53208;DHT22;39093;52.788;6.940;2023-04-06T12:14:29;15.10;62.00
53208;DHT22;39093;52.788;6.940;2023-04-06T12:16:57;15.00;62.30
53208;DHT22;39093;52.788;6.940;2023-04-06T12:19:24;14.90;61.70
53208;DHT22;39093;52.788;6.940;2023-04-06T12:21:53;14.90;62.60
53208;DHT22;39093;52.788;6.940;2023-04-06T12:24:21;15.00;62.60
53208;DHT22;39093;52.788;6.940;2023-04-06T12:26:48;14.90;60.30
53208;DHT22;39093;52.788;6.940;2023-04-06T12:29:19;15.00;59.90
53208;DHT22;39093;52.788;6.940;2023-04-06T12:31:46;15.00;60.00
53208;DHT22;39093;52.788;6.940;2023-04-06T12:34:13;14.90;60.50
53208;DHT22;39093;52.788;6.940;2023-04-06T12:36:40;14.90;60.10
53208;DHT22;39093;52.788;6.940;2023-04-06T12:39:07;14.90;60.20
53208;DHT22;39093;52.788;6.940;2023-04-06T12:41:34;14.90;60.60
53208;DHT22;39093;52.788;6.940;2023-04-06T12:44:02;15.00;60.00
53208;DHT22;39093;52.788;6.940;2023-04-06T12:46:29;14.90;60.10
53208;DHT22;39093;52.788;6.940;2023-04-06T12:48:57;15.00;60.00
53208;DHT22;39093;52.788;6.940;2023-04-06T12:51:27;15.10;60.80
53208;DHT22;39093;52.788;6.940;2023-04-06T12:53:54;15.20;60.90
53208;DHT22;39093;52.788;6.940;2023-04-06T12:56:22;15.20;60.50
53208;DHT22;39093;52.788;6.940;2023-04-06T12:58:53;15.20;60.50
53208;DHT22;39093;52.788;6.940;2023-04-06T13:01:20;15.10;59.30
53208;DHT22;39093;52.788;6.940;2023-04-06T13:03:47;14.90;60.00
53208;DHT22;39093;52.788;6.940;2023-04-06T13:06:14;14.80;60.40
53208;DHT22;39093;52.788;6.940;2023-04-06T13:08:41;14.60;60.80
53208;DHT22;39093;52.788;6.940;2023-04-06T13:11:09;14.50;61.30
53208;DHT22;39093;52.788;6.940;2023-04-06T13:13:36;14.60;61.20
53208;DHT22;39093;52.788;6.940;2023-04-06T13:16:07;14.60;60.00
53208;DHT22;39093;52.788;6.940;2023-04-06T13:18:34;14.50;60.80
53208;DHT22;39093;52.788;6.940;2023-04-06T13:21:03;14.60;61.60
53208;DHT22;39093;52.788;6.940;2023-04-06T13:23:30;14.50;61.10
53208;DHT22;39093;52.788;6.940;2023-04-06T13:26:04;14.50;60.40
53208;DHT22;39093;52.788;6.940;2023-04-06T13:28:34;14.40;61.20
53208;DHT22;39093;52.788;6.940;2023-04-06T13:31:02;14.40;60.60
53208;DHT22;39093;52.788;6.940;2023-04-06T13:33:30;14.30;60.80
53208;DHT22;39093;52.788;6.940;2023-04-06T13:35:58;14.40;61.60
53208;DHT22;39093;52.788;6.940;2023-04-06T13:38:25;14.40;61.70
53208;DHT22;39093;52.788;6.940;2023-04-06T13:40:52;14.50;61.60
53208;DHT22;39093;52.788;6.940;2023-04-06T13:43:19;14.40;61.40
53208;DHT22;39093;52.788;6.940;2023-04-06T13:45:51;14.40;61.50
53208;DHT22;39093;52.788;6.940;2023-04-06T13:48:18;14.40;61.60
53208;DHT22;39093;52.788;6.940;2023-04-06T13:50:46;14.40;61.80
53208;DHT22;39093;52.788;6.940;2023-04-06T13:53:13;14.40;61.60
53208;DHT22;39093;52.788;6.940;2023-04-06T13:55:40;14.40;62.10
53208;DHT22;39093;52.788;6.940;2023-04-06T13:58:07;14.50;60.80
53208;DHT22;39093;52.788;6.940;2023-04-06T14:00:35;14.50;61.70
53208;DHT22;39093;52.788;6.940;2023-04-06T14:03:02;14.60;61.10
53208;DHT22;39093;52.788;6.940;2023-04-06T14:05:32;14.60;61.40
53208;DHT22;39093;52.788;6.940;2023-04-06T14:08:00;14.60;62.20
53208;DHT22;39093;52.788;6.940;2023-04-06T14:10:27;14.50;62.00
53208;DHT22;39093;52.788;6.940;2023-04-06T14:12:54;14.40;62.00
53208;DHT22;39093;52.788;6.940;2023-04-06T14:15:22;14.30;62.50
53208;DHT22;39093;52.788;6.940;2023-04-06T14:17:50;14.20;62.90
53208;DHT22;39093;52.788;6.940;2023-04-06T14:20:18;14.00;63.30
53208;DHT22;39093;52.788;6.940;2023-04-06T14:22:46;14.00;63.20
53208;DHT22;39093;52.788;6.940;2023-04-06T14:25:13;14.00;63.70
53208;DHT22;39093;52.788;6.940;2023-04-06T14:27:40;13.90;64.60
53208;DHT22;39093;52.788;6.940;2023-04-06T14:30:08;13.80;64.60
53208;DHT22;39093;52.788;6.940;2023-04-06T14:32:35;13.80;64.80
53208;DHT22;39093;52.788;6.940;2023-04-06T14:35:06;13.60;65.80
53208;DHT22;39093;52.788;6.940;2023-04-06T14:37:34;13.60;65.20
53208;DHT22;39093;52.788;6.940;2023-04-06T14:40:04;13.60;65.60
53208;DHT22;39093;52.788;6.940;2023-04-06T14:42:31;13.50;66.30
53208;DHT22;39093;52.788;6.940;2023-04-06T14:44:58;13.40;66.50
53208;DHT22;39093;52.788;6.940;2023-04-06T14:47:25;13.50;66.30
53208;DHT22;39093;52.788;6.940;2023-04-06T14:49:52;13.40;66.70
53208;DHT22;39093;52.788;6.940;2023-04-06T14:52:20;13.40;66.80
53208;DHT22;39093;52.788;6.940;2023-04-06T14:54:46;13.40;66.40
53208;DHT22;39093;52.788;6.940;2023-04-06T14:57:13;13.40;67.20
53208;DHT22;39093;52.788;6.940;2023-04-06T14:59:41;13.30;67.40
53208;DHT22;39093;52.788;6.940;2023-04-06T15:02:07;13.20;67.90
53208;DHT22;39093;52.788;6.940;2023-04-06T15:04:35;13.20;67.50
53208;DHT22;39093;52.788;6.940;2023-04-06T15:07:03;13.10;68.40
53208;DHT22;39093;52.788;6.940;2023-04-06T15:09:32;13.00;69.10
53208;DHT22;39093;52.788;6.940;2023-04-06T15:11:59;12.90;69.20
53208;DHT22;39093;52.788;6.940;2023-04-06T15:14:26;12.90;69.20
53208;DHT22;39093;52.788;6.940;2023-04-06T15:16:53;12.80;69.50
53208;DHT22;39093;52.788;6.940;2023-04-06T15:19:21;12.80;69.60
53208;DHT22;39093;52.788;6.940;2023-04-06T15:21:48;12.80;70.80
53208;DHT22;39093;52.788;6.940;2023-04-06T15:24:17;12.70;70.30
53208;DHT22;39093;52.788;6.940;2023-04-06T15:26:44;12.70;70.20
53208;DHT22;39093;52.788;6.940;2023-04-06T15:29:12;12.70;70.40
53208;DHT22;39093;52.788;6.940;2023-04-06T15:31:41;12.70;70.00
53208;DHT22;39093;52.788;6.940;2023-04-06T15:34:08;12.60;70.70
53208;DHT22;39093;52.788;6.940;2023-04-06T15:36:35;12.60;71.20
53208;DHT22;39093;52.788;6.940;2023-04-06T15:39:03;12.60;71.40
53208;DHT22;39093;52.788;6.940;2023-04-06T15:41:30;12.50;71.70
53208;DHT22;39093;52.788;6.940;2023-04-06T15:43:57;12.60;72.00
53208;DHT22;39093;52.788;6.940;2023-04-06T15:46:24;12.50;72.50
53208;DHT22;39093;52.788;6.940;2023-04-06T15:48:55;12.40;72.60
53208;DHT22;39093;52.788;6.940;2023-04-06T15:51:22;12.30;73.30
53208;DHT22;39093;52.788;6.940;2023-04-06T15:53:50;12.40;73.60
53208;DHT22;39093;52.788;6.940;2023-04-06T15:56:17;12.20;74.20
53208;DHT22;39093;52.788;6.940;2023-04-06T15:58:44;12.00;76.10
53208;DHT22;39093;52.788;6.940;2023-04-06T16:01:15;11.90;78.80